createdAt,value
2023-05-22T00:02:05.970Z,44.68
2023-05-22T00:04:38.951Z,44.75
2023-05-22T00:07:09.658Z,42.85
2023-05-22T00:09:39.909Z,42.56
2023-05-22T00:12:10.625Z,42.39
2023-05-22T00:14:40.883Z,42.77
2023-05-22T00:17:15.329Z,42.49
2023-05-22T00:19:48.318Z,41.95
2023-05-22T00:22:18.645Z,42.71
2023-05-22T00:24:49.025Z,42.76
2023-05-22T00:27:21.621Z,42.58
2023-05-22T00:29:51.921Z,42.85
2023-05-22T00:32:21.901Z,43.66
2023-05-22T00:34:54.816Z,43.24
2023-05-22T00:37:25.803Z,42.46
2023-05-22T00:39:56.060Z,42.76
2023-05-22T00:42:26.068Z,43.06
2023-05-22T00:44:56.565Z,42.28
2023-05-22T00:47:27.391Z,41.84
2023-05-22T00:50:00.896Z,42.39
2023-05-22T00:52:31.155Z,43.15
2023-05-22T00:55:04.097Z,43.46
2023-05-22T00:57:36.603Z,43.91
2023-05-22T01:00:09.138Z,42.62
2023-05-22T01:02:40.193Z,42.43
2023-05-22T01:05:18.518Z,42.37
2023-05-22T01:07:49.099Z,42.35
2023-05-22T01:10:19.553Z,42.29
2023-05-22T01:12:58.427Z,43.04
2023-05-22T01:15:39.824Z,42.78
2023-05-22T01:18:20.047Z,42.55
2023-05-22T01:20:58.438Z,42.34
2023-05-22T01:24:07.419Z,42.74
2023-05-22T01:27:07.421Z,43.22
2023-05-22T01:29:46.822Z,42.84
2023-05-22T01:32:23.811Z,42.78
2023-05-22T01:34:57.129Z,43.06
2023-05-22T01:37:28.145Z,42.92
2023-05-22T01:39:59.069Z,42.99
2023-05-22T01:42:30.552Z,43.11
2023-05-22T01:45:01.129Z,43.38
2023-05-22T01:47:35.860Z,43.16
2023-05-22T01:50:06.517Z,43.53
2023-05-22T01:52:43.644Z,43.99
2023-05-22T01:55:18.848Z,44.68
2023-05-22T01:57:57.229Z,45.24
2023-05-22T02:00:30.065Z,46.15
2023-05-22T02:03:10.632Z,47.40
2023-05-22T02:05:42.499Z,46.95
2023-05-22T02:08:15.335Z,47.15
2023-05-22T02:10:46.630Z,46.97
2023-05-22T02:13:18.947Z,47.09
2023-05-22T02:15:50.534Z,46.83
2023-05-22T02:18:24.336Z,46.94
2023-05-22T02:20:54.707Z,46.61
2023-05-22T02:23:24.685Z,46.27
2023-05-22T02:25:55.773Z,46.53
2023-05-22T02:28:26.285Z,46.72
2023-05-22T02:30:56.554Z,46.84
2023-05-22T02:33:30.176Z,47.14
2023-05-22T02:36:00.455Z,47.15
2023-05-22T02:38:30.430Z,46.98
2023-05-22T02:41:00.734Z,48.18
2023-05-22T02:43:30.618Z,47.84
2023-05-22T02:46:01.076Z,48.63
2023-05-22T02:48:34.023Z,48.81
2023-05-22T02:51:04.297Z,48.72
2023-05-22T02:53:35.567Z,48.75
2023-05-22T02:56:06.219Z,48.91
2023-05-22T02:58:36.663Z,49.79
2023-05-22T03:01:07.079Z,49.88
2023-05-22T03:03:40.100Z,49.57
2023-05-22T03:06:10.716Z,50.52
2023-05-22T03:08:43.751Z,50.47
2023-05-22T03:11:14.384Z,50.26
2023-05-22T03:13:44.622Z,49.94
2023-05-22T03:16:14.901Z,50.39
2023-05-22T03:18:47.562Z,50.64
2023-05-22T03:21:17.834Z,49.93
2023-05-22T03:23:48.162Z,49.70
2023-05-22T03:26:18.585Z,49.59
2023-05-22T03:28:50.873Z,49.75
2023-05-22T03:31:21.209Z,49.78
2023-05-22T03:33:54.350Z,49.25
2023-05-22T03:36:25.487Z,49.24
2023-05-22T03:38:56.866Z,49.36
2023-05-22T03:41:27.061Z,49.27
2023-05-22T03:43:57.574Z,49.22
2023-05-22T03:46:28.022Z,49.27
2023-05-22T03:49:00.961Z,49.21
2023-05-22T03:51:31.745Z,49.00
2023-05-22T03:54:02.345Z,49.45
2023-05-22T03:56:32.901Z,49.69
2023-05-22T03:59:04.342Z,49.67
2023-05-22T04:01:34.951Z,49.88
2023-05-22T04:04:09.796Z,49.72
2023-05-22T04:06:43.563Z,49.89
2023-05-22T04:09:14.594Z,49.45
2023-05-22T04:11:44.930Z,49.13
2023-05-22T04:14:15.962Z,49.69
2023-05-22T04:16:50.433Z,48.92
2023-05-22T04:19:23.650Z,48.92
2023-05-22T04:21:54.976Z,48.47
2023-05-22T04:24:25.741Z,46.03
2023-05-22T04:26:56.418Z,43.36
2023-05-22T04:29:26.692Z,41.58
2023-05-22T04:31:57.189Z,40.10
2023-05-22T04:34:30.464Z,39.64
2023-05-22T04:37:00.739Z,38.98
2023-05-22T04:39:31.480Z,38.01
2023-05-22T04:42:06.577Z,36.83
2023-05-22T04:44:37.250Z,37.22
2023-05-22T04:47:11.630Z,37.48
2023-05-22T04:49:45.920Z,35.86
2023-05-22T04:52:18.842Z,35.20
2023-05-22T04:54:56.525Z,35.30
2023-05-22T04:57:30.145Z,33.94
2023-05-22T05:00:01.473Z,33.37
2023-05-22T05:02:31.797Z,33.07
2023-05-22T05:05:04.782Z,33.28
2023-05-22T05:07:35.078Z,32.79
2023-05-22T05:10:05.331Z,32.09
2023-05-22T05:12:35.674Z,32.94
2023-05-22T05:15:09.233Z,32.69
2023-05-22T05:17:42.069Z,31.61
2023-05-22T05:20:16.163Z,31.00
2023-05-22T05:22:46.688Z,31.35
2023-05-22T05:25:17.117Z,31.10
2023-05-22T05:27:47.461Z,30.78
2023-05-22T05:30:20.770Z,31.13
2023-05-22T05:32:51.200Z,31.44
2023-05-22T05:35:24.077Z,30.20
2023-05-22T05:37:54.764Z,30.29
2023-05-22T05:40:25.064Z,30.54
2023-05-22T05:42:55.350Z,30.29
2023-05-22T05:45:25.688Z,29.57
2023-05-22T05:47:56.198Z,28.63
2023-05-22T05:50:29.271Z,29.82
2023-05-22T05:53:02.152Z,30.55
2023-05-22T05:55:34.761Z,31.72
2023-05-22T05:58:05.152Z,31.71
2023-05-22T06:00:38.456Z,32.26
2023-05-22T06:03:08.937Z,30.88
2023-05-22T06:05:45.016Z,31.66
2023-05-22T06:08:16.459Z,31.77
2023-05-22T06:10:46.830Z,31.62
2023-05-22T06:13:17.467Z,31.24
2023-05-22T06:15:48.709Z,32.16
2023-05-22T06:18:19.227Z,31.20
2023-05-22T06:20:52.089Z,31.23
2023-05-22T06:23:22.421Z,30.30
2023-05-22T06:25:53.453Z,30.39
2023-05-22T06:28:23.745Z,29.95
2023-05-22T06:30:54.080Z,30.50
2023-05-22T06:33:26.961Z,30.51
2023-05-22T06:35:59.919Z,30.25
2023-05-22T06:38:30.206Z,30.99
2023-05-22T06:41:00.741Z,30.21
2023-05-22T06:43:30.963Z,29.73
2023-05-22T06:46:01.492Z,29.32
2023-05-22T06:48:33.882Z,29.47
2023-05-22T06:51:07.190Z,29.32
2023-05-22T06:53:37.649Z,28.72
2023-05-22T06:56:11.090Z,29.06
2023-05-22T06:58:42.724Z,29.00
2023-05-22T07:01:13.307Z,29.44
2023-05-22T07:03:43.649Z,29.10
2023-05-22T07:06:16.652Z,28.71
2023-05-22T07:08:49.407Z,28.45
2023-05-22T07:11:20.290Z,27.90
2023-05-22T07:13:53.057Z,28.28
2023-05-22T07:16:23.654Z,27.58
2023-05-22T07:18:59.585Z,28.07
2023-05-22T07:21:32.817Z,28.05
2023-05-22T07:24:08.674Z,28.19
2023-05-22T07:26:39.225Z,29.19
2023-05-22T07:29:09.680Z,28.94
2023-05-22T07:31:40.058Z,28.73
2023-05-22T07:34:10.410Z,27.45
2023-05-22T07:36:44.532Z,27.85
2023-05-22T07:39:15.862Z,27.31
2023-05-22T07:41:51.016Z,27.58
2023-05-22T07:44:21.322Z,28.57
2023-05-22T07:46:52.294Z,27.45
2023-05-22T07:49:23.938Z,26.89
2023-05-22T07:51:56.819Z,26.70
2023-05-22T07:54:27.094Z,27.21
2023-05-22T07:56:57.749Z,26.10
2023-05-22T07:59:28.175Z,27.03
2023-05-22T08:01:58.653Z,28.58
2023-05-22T08:04:30.289Z,29.09
2023-05-22T08:07:03.533Z,28.68
2023-05-22T08:09:33.782Z,28.25
2023-05-22T08:12:04.158Z,27.50
2023-05-22T08:14:37.896Z,27.38
2023-05-22T08:17:08.913Z,26.74
2023-05-22T08:19:39.342Z,27.37
2023-05-22T08:22:12.469Z,27.08
2023-05-22T08:24:42.706Z,26.88
2023-05-22T08:27:12.905Z,27.71
2023-05-22T08:29:43.127Z,28.28
2023-05-22T08:32:14.660Z,28.16
2023-05-22T08:34:46.418Z,26.99
2023-05-22T08:37:22.031Z,26.97
2023-05-22T08:39:52.277Z,27.70
2023-05-22T08:42:22.630Z,27.54
2023-05-22T08:44:53.050Z,27.17
2023-05-22T08:47:24.553Z,28.03
2023-05-22T08:49:58.285Z,27.49
2023-05-22T08:52:36.227Z,27.37
2023-05-22T08:55:09.552Z,27.26
2023-05-22T08:57:40.299Z,26.79
2023-05-22T09:00:12.235Z,26.62
2023-05-22T09:02:42.863Z,27.34
2023-05-22T09:05:14.592Z,27.27
2023-05-22T09:07:49.170Z,26.67
2023-05-22T09:10:19.645Z,27.03
2023-05-22T09:13:05.325Z,26.81
2023-05-22T09:15:36.267Z,26.30
2023-05-22T09:18:07.510Z,26.58
2023-05-22T09:20:39.085Z,27.09
2023-05-22T09:23:18.069Z,28.80
2023-05-22T09:25:48.560Z,29.24
2023-05-22T09:28:18.944Z,28.39
2023-05-22T09:30:52.065Z,27.60
2023-05-22T09:33:23.088Z,27.41
2023-05-22T09:35:55.640Z,28.09
2023-05-22T09:38:31.829Z,28.50
2023-05-22T09:41:02.121Z,28.03
2023-05-22T09:43:32.397Z,27.72
2023-05-22T09:46:05.311Z,27.37
2023-05-22T09:48:39.114Z,27.87
2023-05-22T09:51:10.546Z,28.90
2023-05-22T09:53:46.068Z,27.80
2023-05-22T09:56:27.225Z,27.51
2023-05-22T09:59:07.898Z,27.10
2023-05-22T10:01:39.371Z,27.06
2023-05-22T10:04:15.540Z,27.56
2023-05-22T10:06:53.753Z,27.28
2023-05-22T10:09:32.950Z,27.48
2023-05-22T10:12:08.665Z,28.00
2023-05-22T10:14:39.471Z,27.42
2023-05-22T10:17:12.486Z,27.18
2023-05-22T10:19:46.813Z,26.68
2023-05-22T10:22:21.112Z,27.37
2023-05-22T10:24:54.514Z,27.32
2023-05-22T10:27:24.760Z,27.46
2023-05-22T10:30:01.073Z,27.97
2023-05-22T10:32:38.607Z,27.14
2023-05-22T10:35:20.756Z,26.71
2023-05-22T10:37:54.038Z,26.90
2023-05-22T10:40:33.623Z,26.77
2023-05-22T10:43:05.375Z,26.65
2023-05-22T10:45:37.011Z,26.54
2023-05-22T10:48:08.774Z,26.69
2023-05-22T10:50:42.968Z,26.80
2023-05-22T10:53:24.220Z,26.16
2023-05-22T10:55:59.381Z,25.95
2023-05-22T10:58:32.054Z,25.47
2023-05-22T11:01:16.619Z,25.98
2023-05-22T11:04:00.925Z,26.14
2023-05-22T11:06:39.553Z,26.75
2023-05-22T11:09:35.285Z,27.26
2023-05-22T11:12:28.886Z,27.83
2023-05-22T11:15:00.531Z,28.19
2023-05-22T11:17:32.711Z,27.60
2023-05-22T11:20:08.527Z,27.38
2023-05-22T11:22:42.573Z,26.70
2023-05-22T11:25:14.191Z,27.54
2023-05-22T11:27:47.912Z,27.02
2023-05-22T11:30:19.521Z,25.53
2023-05-22T11:32:50.392Z,26.04
2023-05-22T11:35:25.178Z,26.35
2023-05-22T11:37:57.273Z,26.85
2023-05-22T11:40:31.337Z,26.48
2023-05-22T11:43:04.948Z,26.00
2023-05-22T11:45:40.113Z,27.03
2023-05-22T11:48:15.283Z,26.91
2023-05-22T11:50:46.981Z,26.86
2023-05-22T11:53:17.563Z,26.66
2023-05-22T11:55:51.212Z,27.09
2023-05-22T11:58:30.807Z,27.54
2023-05-22T12:01:02.165Z,26.24
2023-05-22T12:03:33.497Z,26.37
2023-05-22T12:06:05.789Z,27.10
2023-05-22T12:08:36.249Z,27.19
2023-05-22T12:11:08.198Z,27.43
2023-05-22T12:13:41.582Z,27.63
2023-05-22T12:16:23.036Z,26.94
2023-05-22T12:18:56.412Z,27.84
2023-05-22T12:21:30.206Z,27.64
2023-05-22T12:24:00.966Z,26.01
2023-05-22T12:26:31.250Z,26.94
2023-05-22T12:29:05.019Z,26.70
2023-05-22T12:31:40.748Z,27.16
2023-05-22T12:34:11.156Z,26.17
2023-05-22T12:36:42.755Z,26.51
2023-05-22T12:39:20.309Z,25.17
2023-05-22T12:41:50.887Z,26.11
2023-05-22T12:44:23.752Z,27.18
2023-05-22T12:46:55.668Z,26.82
2023-05-22T12:49:26.233Z,26.99
2023-05-22T12:51:56.599Z,28.53
2023-05-22T12:54:26.925Z,27.02
2023-05-22T12:56:57.175Z,26.83
2023-05-22T12:59:31.306Z,27.85
2023-05-22T13:02:02.537Z,28.07
2023-05-22T13:04:33.240Z,28.19
2023-05-22T13:07:03.721Z,28.01
2023-05-22T13:09:33.982Z,28.11
2023-05-22T13:12:04.322Z,27.40
2023-05-22T13:14:39.187Z,27.33
2023-05-22T13:17:09.997Z,27.46
2023-05-22T13:19:43.303Z,28.02
2023-05-22T13:22:13.653Z,28.73
2023-05-22T13:24:46.711Z,28.56
2023-05-22T13:27:19.732Z,28.22
2023-05-22T13:29:52.639Z,28.14
2023-05-22T13:32:23.379Z,28.16
2023-05-22T13:34:53.671Z,28.30
2023-05-22T13:37:24.196Z,27.39
2023-05-22T13:39:54.511Z,28.04
2023-05-22T13:42:24.701Z,28.21
2023-05-22T13:44:58.692Z,28.04
2023-05-22T13:47:29.148Z,28.24
2023-05-22T13:49:59.559Z,28.10
2023-05-22T13:52:30.963Z,28.33
2023-05-22T13:55:01.691Z,27.85
2023-05-22T13:57:32.015Z,27.63
2023-05-22T14:00:04.972Z,28.09
2023-05-22T14:02:35.600Z,28.17
2023-05-22T14:05:06.168Z,27.93
2023-05-22T14:07:36.491Z,28.36
2023-05-22T14:10:07.388Z,27.99
2023-05-22T14:12:37.811Z,28.04
2023-05-22T14:15:11.990Z,28.03
2023-05-22T14:17:45.756Z,27.77
2023-05-22T14:20:16.283Z,27.81
2023-05-22T14:22:57.061Z,27.94
2023-05-22T14:25:28.820Z,28.71
2023-05-22T14:27:59.198Z,28.61
2023-05-22T14:30:32.178Z,28.59
2023-05-22T14:33:02.520Z,28.72
2023-05-22T14:35:32.907Z,29.66
2023-05-22T14:38:03.388Z,28.94
2023-05-22T14:40:34.803Z,29.32
2023-05-22T14:43:05.448Z,28.97
2023-05-22T14:45:38.509Z,29.22
2023-05-22T14:48:11.107Z,28.25
2023-05-22T14:50:41.593Z,28.33
2023-05-22T14:53:11.967Z,28.07
2023-05-22T14:55:42.481Z,28.84
2023-05-22T14:58:12.956Z,28.53
2023-05-22T15:00:47.425Z,29.19
2023-05-22T15:03:19.426Z,28.99
2023-05-22T15:05:49.870Z,29.49
2023-05-22T15:08:20.314Z,29.67
2023-05-22T15:10:51.090Z,29.96
2023-05-22T15:13:21.790Z,29.67
2023-05-22T15:15:54.757Z,29.41
2023-05-22T15:18:26.832Z,30.36
2023-05-22T15:20:57.251Z,30.37
2023-05-22T15:23:27.585Z,30.09
2023-05-22T15:25:59.804Z,29.88
2023-05-22T15:28:30.147Z,29.54
2023-05-22T15:31:04.686Z,29.67
2023-05-22T15:33:34.988Z,29.80
2023-05-22T15:36:07.543Z,29.17
2023-05-22T15:38:37.847Z,29.30
2023-05-22T15:41:08.323Z,29.49
2023-05-22T15:43:40.861Z,30.49
2023-05-22T15:46:16.861Z,30.13
2023-05-22T15:48:47.276Z,30.88
2023-05-22T15:51:17.742Z,31.10
2023-05-22T15:53:48.076Z,31.46
2023-05-22T15:56:21.713Z,30.96
2023-05-22T15:58:52.030Z,31.61
2023-05-22T16:01:24.982Z,31.01
2023-05-22T16:03:55.401Z,31.01
2023-05-22T16:06:25.668Z,30.88
2023-05-22T16:08:55.970Z,31.01
2023-05-22T16:11:26.274Z,31.28
2023-05-22T16:13:56.751Z,31.24
2023-05-22T16:16:29.685Z,31.41
2023-05-22T16:19:00.185Z,31.59
2023-05-22T16:21:30.588Z,32.33
2023-05-22T16:24:01.068Z,31.76
2023-05-22T16:26:31.348Z,31.77
2023-05-22T16:29:01.615Z,31.61
2023-05-22T16:31:35.725Z,31.53
2023-05-22T16:34:06.264Z,31.86
2023-05-22T16:36:36.524Z,31.87
2023-05-22T16:39:06.903Z,32.32
2023-05-22T16:41:37.393Z,32.24
2023-05-22T16:44:07.634Z,32.82
2023-05-22T16:46:40.609Z,32.85
2023-05-22T16:49:10.967Z,33.18
2023-05-22T16:51:41.328Z,33.35
2023-05-22T16:54:11.566Z,33.80
2023-05-22T16:56:42.764Z,33.58
2023-05-22T16:59:13.056Z,33.89
2023-05-22T17:01:47.057Z,33.94
2023-05-22T17:04:19.446Z,34.21
2023-05-22T17:06:53.940Z,34.19
2023-05-22T17:09:24.245Z,34.66
2023-05-22T17:11:54.576Z,34.48
2023-05-22T17:14:27.552Z,34.66
2023-05-22T17:17:00.844Z,35.22
2023-05-22T17:19:32.492Z,35.31
2023-05-22T17:22:02.939Z,35.86
2023-05-22T17:24:33.354Z,35.47
2023-05-22T17:27:03.730Z,36.17
2023-05-22T17:29:33.987Z,35.86
2023-05-22T17:32:07.831Z,36.47
2023-05-22T17:34:38.223Z,36.35
2023-05-22T17:37:08.865Z,37.26
2023-05-22T17:39:39.224Z,37.65
2023-05-22T17:42:09.920Z,37.92
2023-05-22T17:44:42.644Z,38.45
2023-05-22T17:47:16.616Z,39.27
2023-05-22T17:49:46.902Z,39.42
2023-05-22T17:52:17.664Z,40.15
2023-05-22T17:54:48.025Z,40.86
2023-05-22T17:57:18.420Z,41.88
2023-05-22T17:59:48.717Z,42.48
2023-05-22T18:02:21.836Z,43.61
2023-05-22T18:04:52.167Z,44.49
2023-05-22T18:07:22.690Z,45.31
2023-05-22T18:09:53.055Z,46.09
2023-05-22T18:12:31.090Z,47.39
2023-05-22T18:15:01.875Z,47.85
2023-05-22T18:17:35.042Z,48.93
2023-05-22T18:20:06.558Z,49.46
2023-05-22T18:22:37.342Z,50.25
2023-05-22T18:25:09.470Z,50.56
2023-05-22T18:27:40.053Z,50.58
2023-05-22T18:30:12.138Z,50.91
2023-05-22T18:32:45.335Z,51.30
2023-05-22T18:35:15.754Z,51.20
2023-05-22T18:37:46.286Z,51.10
2023-05-22T18:40:16.775Z,51.44
2023-05-22T18:42:47.190Z,50.58
2023-05-22T18:45:17.591Z,51.01
2023-05-22T18:47:50.784Z,51.22
2023-05-22T18:50:23.411Z,50.57
2023-05-22T18:52:56.325Z,49.95
2023-05-22T18:55:27.119Z,50.17
2023-05-22T18:57:57.873Z,49.49
2023-05-22T19:00:28.685Z,49.58
2023-05-22T19:03:04.753Z,49.70
2023-05-22T19:05:35.610Z,49.59
2023-05-22T19:08:07.728Z,49.00
2023-05-22T19:10:42.190Z,48.44
2023-05-22T19:13:15.627Z,48.58
2023-05-22T19:15:46.724Z,47.88
2023-05-22T19:18:20.415Z,47.73
2023-05-22T19:20:51.347Z,48.45
2023-05-22T19:23:22.760Z,48.64
2023-05-22T19:25:53.601Z,48.41
2023-05-22T19:28:24.765Z,49.07
2023-05-22T19:30:58.431Z,49.12
2023-05-22T19:33:33.976Z,49.19
2023-05-22T19:36:06.850Z,49.10
2023-05-22T19:38:38.428Z,49.01
2023-05-22T19:41:12.218Z,49.32
2023-05-22T19:43:42.695Z,49.50
2023-05-22T19:46:14.327Z,49.63
2023-05-22T19:48:48.409Z,49.71
2023-05-22T19:51:19.987Z,49.51
2023-05-22T19:53:52.010Z,49.49
2023-05-22T19:56:22.436Z,49.90
2023-05-22T19:58:53.067Z,49.53
2023-05-22T20:01:27.146Z,49.12
2023-05-22T20:04:04.141Z,49.26
2023-05-22T20:06:35.354Z,49.50
2023-05-22T20:09:06.323Z,49.52
2023-05-22T20:11:37.052Z,49.73
2023-05-22T20:14:08.666Z,50.46
2023-05-22T20:16:39.536Z,50.09
2023-05-22T20:19:14.460Z,50.16
2023-05-22T20:21:50.018Z,50.18
2023-05-22T20:24:22.216Z,50.50
2023-05-22T20:26:52.502Z,50.21
2023-05-22T20:29:23.165Z,50.30
2023-05-22T20:31:56.102Z,50.37
2023-05-22T20:34:32.368Z,50.03
2023-05-22T20:37:03.305Z,50.18
2023-05-22T20:39:33.598Z,50.17
2023-05-22T20:42:07.990Z,50.39
2023-05-22T20:44:39.632Z,50.58
2023-05-22T20:47:11.497Z,50.55
2023-05-22T20:49:44.464Z,51.17
2023-05-22T20:52:16.319Z,51.27
2023-05-22T20:54:47.885Z,51.30
2023-05-22T20:57:18.284Z,51.58
2023-05-22T20:59:48.616Z,51.76
2023-05-22T21:02:20.174Z,51.81
2023-05-22T21:04:55.513Z,52.45
2023-05-22T21:07:27.863Z,52.56
2023-05-22T21:09:58.440Z,52.41
2023-05-22T21:12:29.148Z,52.71
2023-05-22T21:14:59.440Z,53.55
2023-05-22T21:17:29.588Z,53.09
2023-05-22T21:20:07.161Z,53.29
2023-05-22T21:22:37.624Z,53.62
2023-05-22T21:25:11.552Z,53.67
2023-05-22T21:27:41.789Z,53.80
2023-05-22T21:30:15.097Z,53.85
2023-05-22T21:32:46.013Z,54.15
2023-05-22T21:35:19.464Z,54.17
2023-05-22T21:37:50.079Z,54.14
2023-05-22T21:40:20.546Z,54.54
2023-05-22T21:42:53.327Z,54.44
2023-05-22T21:45:23.894Z,54.62
2023-05-22T21:47:54.274Z,54.44
2023-05-22T21:50:27.508Z,54.69
2023-05-22T21:53:00.810Z,55.24
2023-05-22T21:55:36.180Z,54.95
2023-05-22T21:58:06.476Z,54.83
2023-05-22T22:00:37.571Z,54.70
2023-05-22T22:03:08.240Z,55.25
2023-05-22T22:05:41.314Z,55.54
2023-05-22T22:08:11.581Z,55.86
2023-05-22T22:10:42.198Z,55.68
2023-05-22T22:13:14.055Z,55.50
2023-05-22T22:15:44.344Z,55.33
2023-05-22T22:18:15.141Z,55.51
2023-05-22T22:20:50.309Z,55.93
2023-05-22T22:23:20.833Z,55.63
2023-05-22T22:25:51.334Z,55.70
2023-05-22T22:28:21.619Z,55.93
2023-05-22T22:30:55.278Z,56.27
2023-05-22T22:33:26.032Z,56.45
2023-05-22T22:35:59.989Z,56.43
2023-05-22T22:38:33.025Z,56.43
2023-05-22T22:41:05.018Z,56.44
2023-05-22T22:43:35.340Z,56.84
2023-05-22T22:46:05.320Z,56.51
2023-05-22T22:48:37.703Z,56.43
2023-05-22T22:51:10.652Z,56.46
2023-05-22T22:53:41.283Z,56.76
2023-05-22T22:56:11.535Z,56.67
2023-05-22T22:58:41.550Z,56.29
2023-05-22T23:01:11.867Z,56.83
2023-05-22T23:03:41.832Z,56.92
2023-05-22T23:06:14.986Z,56.75
2023-05-22T23:08:45.222Z,56.50
2023-05-22T23:11:15.234Z,57.16
2023-05-22T23:13:45.532Z,57.21
2023-05-22T23:16:16.609Z,57.22
2023-05-22T23:18:46.973Z,57.16
2023-05-22T23:21:19.913Z,57.42
2023-05-22T23:23:50.137Z,57.43
2023-05-22T23:26:20.804Z,57.60
2023-05-22T23:28:51.337Z,57.12
2023-05-22T23:31:26.146Z,57.54
2023-05-22T23:33:56.545Z,57.18
2023-05-22T23:36:29.544Z,57.50
2023-05-22T23:38:59.814Z,57.39
2023-05-22T23:41:29.758Z,57.73
2023-05-22T23:43:59.985Z,57.99
2023-05-22T23:46:33.412Z,57.64
2023-05-22T23:49:03.698Z,57.66
2023-05-22T23:51:36.855Z,57.89
2023-05-22T23:54:07.433Z,57.94
2023-05-22T23:56:37.701Z,57.97
2023-05-22T23:59:08.204Z,57.93
